CZFM

Fort McPherson Airport

Fort Mcpherson, Northwest Territories, Canada
METAR CZFM 212300Z 35010KT 300V030 35SM SCT220 22/10 A2987 RMK CI4 23.3/12.3/0.0/LAST OBS/NXT 221300Z SLP117 DENSITY ALT 1100FT
Observed Flight Rules
Jun-21 @ 23:00 UTC (7 hours ago) Visual Flight Rules
Wind Visibility Clouds
350° at 10 knots 35 miles
  • Scattered at 22,000' AGL
Temperatures Readings
Current 22°C / 72°F
Dewpoint 10°C / 50°F
Humidity 47%
Altimeter 29.87" Hg
Pressure 1011.7 hPa
Elevation 43
METAR CZFM 212300Z 35010KT 300V030 35SM SCT220 22/10 A2987 RMK CI4 23.3/12.3/0.0/LAST OBS/NXT 221300Z SLP117 DENSITY ALT 1100FT
Observed Flight Rules
Jun-21 @ 23:00 UTC
(7 hours ago)
VFR
Wind Visibility
350° at 10 knots 35 miles
Clouds
  • Scattered at 22,000' AGL
Temperature Dewpoint
22°C / 72°F 10°C / 50°F
Humidity Altimeter Pressure
47% 29.87" Hg 1011.7 hPa